Time;durP1;ratioP1;P1;durP2;ratioP2;P2;SDS_P1;SDS_P2;PMS_P1;PMS_P2;Temp;Humidity;BMP_temperature;BMP_pressure;BME280_temperature;BME280_humidity;BME280_pressure;Samples;Min_cycle;Max_cycle;Signal;HPM_P1;HPM_P2
2023/05/27 00:00:17;;;;;;;17.10;1.90;;;;;;;13.48;73.30;102531.78;7355669;19;20021;-63
2023/05/27 00:02:44;;;;;;;18.20;2.40;;;;;;;13.50;74.00;102529.84;7352358;19;20018;-64
2023/05/27 00:05:12;;;;;;;18.33;1.95;;;;;;;13.48;74.09;102531.78;7353287;19;21129;-62
2023/05/27 00:07:39;;;;;;;17.85;2.22;;;;;;;13.48;73.89;102536.22;7353545;19;20014;-63
2023/05/27 00:10:06;;;;;;;16.08;2.30;;;;;;;13.50;74.03;102529.00;7353549;19;20010;-63
2023/05/27 00:12:33;;;;;;;17.77;2.00;;;;;;;13.51;74.32;102526.22;7354156;19;20082;-63
2023/05/27 00:15:00;;;;;;;17.67;2.05;;;;;;;13.48;74.50;102538.88;7356011;19;20038;-63
2023/05/27 00:17:27;;;;;;;16.65;1.80;;;;;;;13.47;74.28;102543.31;7352949;19;20102;-63
2023/05/27 00:19:55;;;;;;;17.58;2.53;;;;;;;13.48;74.32;102537.06;7356174;19;21345;-63
2023/05/27 00:22:22;;;;;;;20.40;2.38;;;;;;;13.47;74.25;102534.53;7352843;19;20035;-64
2023/05/27 00:24:49;;;;;;;12.63;2.45;;;;;;;13.48;75.37;102531.78;7355234;19;20150;-62
2023/05/27 00:27:17;;;;;;;19.33;2.25;;;;;;;13.50;74.72;102539.59;7353044;19;20006;-64
2023/05/27 00:29:44;;;;;;;15.80;2.35;;;;;;;13.45;74.68;102531.19;7359887;19;20050;-63
2023/05/27 00:32:11;;;;;;;16.48;2.00;;;;;;;13.39;75.13;102531.72;7354684;19;20051;-62
2023/05/27 00:34:38;;;;;;;16.85;1.58;;;;;;;13.21;76.20;102534.06;7356452;19;20021;-64
2023/05/27 00:37:06;;;;;;;20.08;1.95;;;;;;;13.23;76.07;102530.34;7357192;19;20535;-62
2023/05/27 00:39:33;;;;;;;20.15;2.85;;;;;;;13.20;76.43;102522.69;7358416;19;20864;-63
2023/05/27 00:42:01;;;;;;;16.27;2.17;;;;;;;13.18;76.68;102526.41;7358271;19;20970;-62
2023/05/27 00:44:31;;;;;;;23.65;2.42;;;;;;;13.21;76.79;102520.84;7354898;19;20010;-62
2023/05/27 00:46:58;;;;;;;15.82;1.92;;;;;;;13.20;77.49;102514.75;7350803;19;20303;-62
2023/05/27 00:49:26;;;;;;;19.30;2.00;;;;;;;13.19;77.38;102520.16;7355722;19;20054;-63
2023/05/27 00:51:53;;;;;;;16.73;1.88;;;;;;;13.19;76.86;102515.72;7361098;19;20018;-63
2023/05/27 00:54:21;;;;;;;14.00;1.75;;;;;;;13.20;77.08;102520.03;7360349;19;20011;-63
2023/05/27 00:56:48;;;;;;;23.27;2.90;;;;;;;13.23;77.05;102509.22;7358934;19;20513;-62
2023/05/27 00:59:15;;;;;;;19.23;2.58;;;;;;;13.22;77.20;102509.31;7357675;19;20018;-63
2023/05/27 01:01:43;;;;;;;14.00;2.47;;;;;;;13.18;77.32;102500.81;7355675;19;20118;-63
2023/05/27 01:04:12;;;;;;;21.13;2.05;;;;;;;13.18;77.23;102502.63;7358675;19;20037;-63
2023/05/27 01:06:47;;;;;;;15.90;1.83;;;;;;;13.12;77.67;102505.78;7357980;19;20491;-63
2023/05/27 01:09:24;;;;;;;19.73;2.42;;;;;;;13.10;78.04;102507.69;7358263;19;20086;-63
2023/05/27 01:12:08;;;;;;;15.13;2.47;;;;;;;13.05;78.40;102494.84;7362589;19;20015;-63
2023/05/27 01:14:38;;;;;;;16.48;1.98;;;;;;;13.06;78.40;102500.97;7359693;19;20542;-63
2023/05/27 01:17:06;;;;;;;15.15;2.33;;;;;;;13.05;78.33;102500.16;7348937;19;20022;-64
2023/05/27 01:19:34;;;;;;;22.65;2.35;;;;;;;13.00;78.74;102499.69;7361346;19;20026;-62
2023/05/27 01:22:02;;;;;;;16.65;5.10;;;;;;;13.01;79.65;102492.56;7357142;19;20018;-64
2023/05/27 01:24:31;;;;;;;21.00;2.15;;;;;;;13.04;79.42;102492.34;7359605;19;20102;-64
2023/05/27 01:27:01;;;;;;;17.15;2.15;;;;;;;13.02;79.44;102488.97;7359513;19;20025;-64
2023/05/27 01:29:29;;;;;;;16.73;2.10;;;;;;;13.02;79.59;102481.03;7361766;19;20148;-64
2023/05/27 01:32:12;;;;;;;16.48;2.20;;;;;;;13.00;79.42;102485.63;7357440;19;20313;-63
2023/05/27 01:34:51;;;;;;;19.67;2.75;;;;;;;13.00;79.99;102485.63;7360527;19;20018;-63
2023/05/27 01:37:21;;;;;;;16.33;2.42;;;;;;;12.86;80.26;102490.25;7361584;19;20018;-63
2023/05/27 01:39:50;;;;;;;15.23;2.05;;;;;;;12.83;80.91;102482.59;7363654;19;20043;-63
2023/05/27 01:42:19;;;;;;;24.80;2.65;;;;;;;12.74;81.53;102478.06;7364640;19;20010;-62
2023/05/27 01:44:47;;;;;;;19.05;2.58;;;;;;;12.67;81.82;102470.75;7366192;19;20025;-62
2023/05/27 01:47:14;;;;;;;21.70;3.08;;;;;;;12.59;82.60;102467.91;7362450;19;20031;-63
2023/05/27 01:49:41;;;;;;;20.23;2.58;;;;;;;12.57;82.89;102473.31;7367491;19;21274;-63
2023/05/27 01:52:08;;;;;;;20.33;4.05;;;;;;;12.58;83.27;102472.34;7365434;19;20022;-63
2023/05/27 01:54:36;;;;;;;22.02;2.38;;;;;;;12.63;82.80;102469.31;7364822;19;20018;-62
2023/05/27 01:57:04;;;;;;;22.42;2.30;;;;;;;12.68;82.54;102475.06;7364499;19;20018;-63
2023/05/27 01:59:32;;;;;;;16.67;2.95;;;;;;;12.69;82.30;102476.75;7365636;19;20021;-63
2023/05/27 02:01:59;;;;;;;19.75;2.60;;;;;;;12.67;83.02;102468.94;7360057;19;20715;-63
2023/05/27 02:04:26;;;;;;;24.27;2.60;;;;;;;12.63;82.89;102466.69;7368045;19;20367;-63
2023/05/27 02:06:53;;;;;;;16.35;3.03;;;;;;;12.55;83.45;102466.47;7362929;19;20018;-63
2023/05/27 02:09:20;;;;;;;18.15;3.08;;;;;;;12.54;83.89;102463.00;7364950;19;20030;-63
2023/05/27 02:11:47;;;;;;;19.08;2.67;;;;;;;12.51;84.07;102462.41;7363764;19;20022;-62
2023/05/27 02:14:14;;;;;;;18.92;2.40;;;;;;;12.46;83.94;102451.38;7364750;19;20122;-63
2023/05/27 02:16:42;;;;;;;21.60;2.42;;;;;;;12.44;84.24;102459.44;7360276;19;20440;-63
2023/05/27 02:19:09;;;;;;;23.80;2.90;;;;;;;12.41;84.66;102462.31;7365869;19;20025;-63
2023/05/27 02:21:37;;;;;;;21.15;2.72;;;;;;;12.35;84.60;102463.63;7362020;19;20022;-64
2023/05/27 02:24:04;;;;;;;24.73;4.97;;;;;;;12.32;85.21;102465.69;7365036;19;20018;-62
2023/05/27 02:26:31;;;;;;;16.25;2.13;;;;;;;12.28;85.36;102457.19;7363817;19;20025;-62
2023/05/27 02:28:58;;;;;;;17.92;2.70;;;;;;;12.30;86.08;102457.88;7365207;19;20505;-62
2023/05/27 02:31:26;;;;;;;19.88;2.63;;;;;;;12.32;85.49;102460.41;7360154;19;20022;-62
2023/05/27 02:33:53;;;;;;;17.15;3.10;;;;;;;12.33;85.40;102449.75;7364414;19;20029;-64
2023/05/27 02:36:21;;;;;;;18.60;2.03;;;;;;;12.33;85.27;102449.75;7363186;19;20479;-63
2023/05/27 02:38:48;;;;;;;24.88;3.13;;;;;;;12.22;85.89;102441.84;7363960;19;20014;-63
2023/05/27 02:41:15;;;;;;;16.13;2.97;;;;;;;12.28;85.85;102445.78;7361764;19;20034;-63
2023/05/27 02:43:42;;;;;;;20.67;2.35;;;;;;;12.26;85.86;102442.44;7363805;19;20037;-63
2023/05/27 02:46:09;;;;;;;15.07;3.70;;;;;;;12.26;86.10;102442.44;7356444;19;20022;-64
2023/05/27 02:48:36;;;;;;;22.10;3.10;;;;;;;12.31;86.07;102446.38;7363203;19;20062;-64
2023/05/27 02:51:03;;;;;;;24.98;3.88;;;;;;;12.32;86.24;102444.59;7358931;19;20059;-62
2023/05/27 02:53:30;;;;;;;19.98;3.13;;;;;;;12.30;85.38;102436.78;7364176;19;20843;-63
2023/05/27 02:55:57;;;;;;;17.63;2.60;;;;;;;12.31;85.77;102432.34;7363057;19;20022;-64
2023/05/27 02:58:24;;;;;;;19.40;3.08;;;;;;;12.29;85.97;102435.09;7361259;19;21390;-63
2023/05/27 03:00:51;;;;;;;24.85;4.20;;;;;;;12.30;86.22;102436.78;7361058;19;20601;-63
2023/05/27 03:03:18;;;;;;;21.20;4.68;;;;;;;12.27;86.00;102437.03;7363022;19;20018;-63
2023/05/27 03:05:47;;;;;;;24.90;4.13;;;;;;;12.25;86.21;102432.81;7363489;19;20026;-63
2023/05/27 03:08:15;;;;;;;26.17;4.63;;;;;;;12.27;86.07;102436.19;7364174;19;20082;-62
2023/05/27 03:10:42;;;;;;;21.85;3.95;;;;;;;12.29;85.88;102437.72;7361500;19;20586;-62
2023/05/27 03:13:09;;;;;;;20.35;3.08;;;;;;;12.31;85.84;102433.19;7363058;19;20010;-63
2023/05/27 03:15:39;;;;;;;19.23;3.47;;;;;;;12.27;85.95;102434.41;7359458;19;20015;-63
2023/05/27 03:18:06;;;;;;;27.40;4.75;;;;;;;12.31;86.43;102432.34;7361168;19;20010;-63
2023/05/27 03:20:33;;;;;;;22.02;4.82;;;;;;;12.35;85.85;102431.13;7361987;19;21733;-62
2023/05/27 03:23:00;;;;;;;29.77;4.18;;;;;;;12.32;85.90;102437.50;7362511;19;20015;-64
2023/05/27 03:25:28;;;;;;;27.25;5.15;;;;;;;12.29;86.13;102435.09;7363403;19;20014;-63
2023/05/27 03:27:55;;;;;;;19.88;3.50;;;;;;;12.28;86.38;102435.25;7364185;19;20032;-62
2023/05/27 03:30:23;;;;;;;20.60;3.38;;;;;;;12.28;87.12;102440.50;7360133;19;20010;-63
2023/05/27 03:32:50;;;;;;;24.17;3.80;;;;;;;12.27;86.66;102434.41;7362334;19;21786;-63
2023/05/27 03:35:18;;;;;;;22.33;2.90;;;;;;;12.30;86.35;102436.78;7362129;19;20006;-63
2023/05/27 03:37:45;;;;;;;23.52;4.32;;;;;;;12.30;86.41;102426.22;7359118;19;20007;-62
2023/05/27 03:40:12;;;;;;;21.25;3.58;;;;;;;12.25;86.64;102428.38;7361748;19;20090;-62
2023/05/27 03:42:39;;;;;;;17.90;3.05;;;;;;;12.26;86.56;102422.16;7360487;19;20462;-63
2023/05/27 03:45:07;;;;;;;17.02;2.90;;;;;;;12.28;87.95;102422.88;7361376;19;20093;-63
2023/05/27 03:47:35;;;;;;;20.38;4.13;;;;;;;12.30;88.03;102433.28;7358759;19;20018;-70
2023/05/27 03:50:03;;;;;;;19.60;2.67;;;;;;;12.32;87.97;102419.03;7361272;19;20019;-63
2023/05/27 03:52:30;;;;;;;22.70;4.38;;;;;;;12.33;88.08;102414.59;7359285;19;20033;-63
2023/05/27 03:54:57;;;;;;;19.50;3.28;;;;;;;12.36;87.44;102422.25;7361516;19;20030;-63
2023/05/27 03:57:24;;;;;;;18.95;3.42;;;;;;;12.40;87.06;102421.88;7361711;19;20505;-62
2023/05/27 03:59:51;;;;;;;18.42;3.40;;;;;;;12.40;86.63;102419.22;7362103;19;20967;-63
2023/05/27 04:02:18;;;;;;;19.15;3.50;;;;;;;12.47;86.20;102416.94;7358294;19;20509;-63
2023/05/27 04:04:46;;;;;;;21.35;2.88;;;;;;;12.44;86.44;102420.66;7365646;19;20618;-67
2023/05/27 04:07:13;;;;;;;17.77;2.83;;;;;;;12.43;86.18;102424.28;7368928;19;20041;-63
2023/05/27 04:09:40;;;;;;;14.60;2.25;;;;;;;12.46;86.46;102414.41;7365328;19;20014;-63
2023/05/27 04:12:08;;;;;;;18.55;2.90;;;;;;;12.49;86.49;102416.81;7368624;19;20026;-63
2023/05/27 04:14:35;;;;;;;17.30;2.75;;;;;;;12.53;87.01;102416.44;7367906;19;20010;-64
2023/05/27 04:17:03;;;;;;;13.20;2.35;;;;;;;12.56;85.64;102420.63;7363084;19;20113;-63
2023/05/27 04:19:32;;;;;;;24.95;3.10;;;;;;;12.51;85.84;102422.78;7368107;19;20097;-63
2023/05/27 04:21:59;;;;;;;17.40;2.75;;;;;;;12.47;85.84;102414.28;7365919;19;21220;-63
2023/05/27 04:24:27;;;;;;;23.85;3.10;;;;;;;12.43;86.85;102418.16;7367239;19;20725;-63
2023/05/27 04:26:54;;;;;;;17.77;2.90;;;;;;;12.42;86.92;102425.22;7366404;19;20018;-63
2023/05/27 04:29:22;;;;;;;23.75;3.80;;;;;;;12.46;86.24;102423.16;7368035;19;20098;-63
2023/05/27 04:31:50;;;;;;;24.42;3.88;;;;;;;12.46;86.18;102415.25;7363558;19;20118;-63
2023/05/27 04:34:17;;;;;;;21.25;3.35;;;;;;;12.44;86.44;102422.47;7368460;19;20018;-63
2023/05/27 04:36:49;;;;;;;26.02;4.15;;;;;;;12.43;86.35;102421.63;7366630;19;20042;-63
2023/05/27 04:39:16;;;;;;;22.88;3.40;;;;;;;12.46;85.84;102414.41;7367372;19;21374;-63
2023/05/27 04:41:44;;;;;;;21.20;3.08;;;;;;;12.44;85.62;102415.38;7366771;19;20018;-63
2023/05/27 04:44:12;;;;;;;17.88;3.25;;;;;;;12.44;86.48;102409.28;7368667;19;20503;-63
2023/05/27 04:46:39;;;;;;;24.73;4.25;;;;;;;12.35;86.02;102413.47;7362851;19;20018;-63
2023/05/27 04:49:06;;;;;;;19.20;3.38;;;;;;;12.36;86.14;102415.16;7364503;19;20811;-62
2023/05/27 04:51:35;;;;;;;26.02;4.07;;;;;;;12.35;86.30;102410.00;7368678;19;21071;-63
2023/05/27 04:54:03;;;;;;;21.92;3.58;;;;;;;12.33;86.32;102410.16;7368519;19;20018;-63
2023/05/27 04:56:30;;;;;;;22.45;3.10;;;;;;;12.31;86.16;102403.31;7367730;19;20014;-64
2023/05/27 04:58:58;;;;;;;22.48;3.55;;;;;;;12.29;86.54;102411.34;7367175;19;20011;-64
2023/05/27 05:01:29;;;;;;;19.98;4.13;;;;;;;12.30;86.18;102404.25;7361979;19;21725;-64
2023/05/27 05:04:12;;;;;;;17.90;4.05;;;;;;;12.29;86.12;102408.69;7367507;19;20021;-62
2023/05/27 05:06:40;;;;;;;26.67;4.00;;;;;;;12.29;86.22;102406.06;7367256;19;20823;-64
2023/05/27 05:09:09;;;;;;;23.25;4.13;;;;;;;12.29;86.39;102408.69;7364253;19;21882;-62
2023/05/27 05:11:36;;;;;;;23.73;3.08;;;;;;;12.33;86.93;102411.94;7366023;19;20026;-64
2023/05/27 05:14:03;;;;;;;19.85;3.47;;;;;;;12.41;86.38;102409.50;7366194;19;20018;-64
2023/05/27 05:16:30;;;;;;;21.83;4.50;;;;;;;12.48;86.57;102410.69;7361057;19;20014;-63
2023/05/27 05:18:57;;;;;;;18.27;3.17;;;;;;;12.56;85.17;102396.84;7366033;19;20041;-63
2023/05/27 05:21:24;;;;;;;18.25;2.88;;;;;;;12.48;84.72;102404.56;7366189;19;20085;-64
2023/05/27 05:23:51;;;;;;;18.85;3.13;;;;;;;12.54;84.71;102398.78;7366943;19;20524;-64
2023/05/27 05:26:18;;;;;;;19.98;3.20;;;;;;;12.59;84.75;102404.53;7365753;19;20014;-63
2023/05/27 05:28:45;;;;;;;19.65;3.75;;;;;;;12.63;85.18;102403.31;7367104;19;20027;-64
2023/05/27 05:31:12;;;;;;;14.18;3.33;;;;;;;12.64;84.35;102400.56;7363340;19;20029;-63
2023/05/27 05:33:40;;;;;;;19.65;3.45;;;;;;;12.62;84.34;102399.00;7367782;19;20010;-64
2023/05/27 05:36:08;;;;;;;19.08;3.80;;;;;;;12.63;84.56;102403.31;7366510;19;20018;-63
2023/05/27 05:38:35;;;;;;;18.88;2.90;;;;;;;12.64;84.46;102403.19;7365430;19;20018;-63
2023/05/27 05:41:02;;;;;;;13.02;3.60;;;;;;;12.66;84.25;102408.31;7363962;19;20006;-63
2023/05/27 05:43:30;;;;;;;21.83;3.17;;;;;;;12.71;83.81;102403.50;7365966;19;20010;-63
2023/05/27 05:45:57;;;;;;;22.58;3.63;;;;;;;12.74;83.81;102414.66;7361188;19;20503;-64
2023/05/27 05:48:24;;;;;;;17.23;3.65;;;;;;;12.81;83.56;102407.06;7364172;19;20023;-63
2023/05/27 05:50:52;;;;;;;21.15;3.40;;;;;;;12.87;83.06;102406.53;7365566;19;20464;-62
2023/05/27 05:53:20;;;;;;;14.25;3.17;;;;;;;12.84;82.41;102412.94;7366370;19;20002;-64
2023/05/27 05:55:47;;;;;;;17.08;2.60;;;;;;;12.90;82.68;102413.38;7365762;19;20043;-68
2023/05/27 05:58:14;;;;;;;12.52;2.58;;;;;;;12.92;82.60;102409.63;7365284;19;20006;-63
2023/05/27 06:00:42;;;;;;;14.57;2.53;;;;;;;12.95;81.98;102406.75;7362994;19;21020;-63
2023/05/27 06:03:09;;;;;;;22.58;3.03;;;;;;;13.02;81.97;102413.19;7363136;19;20097;-63
2023/05/27 06:05:36;;;;;;;15.38;2.53;;;;;;;13.07;81.60;102402.22;7364441;19;20018;-63
2023/05/27 06:08:04;;;;;;;19.02;2.58;;;;;;;13.09;81.48;102403.78;7365178;19;20050;-62
2023/05/27 06:10:31;;;;;;;14.93;2.17;;;;;;;13.18;81.52;102413.59;7364814;19;20006;-63
2023/05/27 06:12:59;;;;;;;19.05;4.28;;;;;;;13.43;80.18;102412.34;7364172;19;20018;-63
2023/05/27 06:15:26;;;;;;;18.15;2.88;;;;;;;13.62;79.47;102407.13;7362159;19;20026;-64
2023/05/27 06:17:54;;;;;;;18.55;2.45;;;;;;;13.86;78.51;102414.75;7363192;19;20129;-62
2023/05/27 06:20:23;;;;;;;19.13;1.85;;;;;;;14.32;76.22;102408.84;7365642;19;20040;-63
2023/05/27 06:22:50;;;;;;;18.45;2.58;;;;;;;14.74;74.07;102400.63;7363338;19;20154;-62
2023/05/27 06:25:18;;;;;;;17.73;2.17;;;;;;;15.22;71.48;102398.72;7361437;19;20014;-63
2023/05/27 06:27:45;;;;;;;10.35;2.00;;;;;;;15.18;70.79;102400.00;7362435;19;20019;-63
2023/05/27 06:30:12;;;;;;;16.52;2.97;;;;;;;14.92;71.38;102394.47;7363144;19;20346;-62
2023/05/27 06:32:40;;;;;;;15.88;2.03;;;;;;;14.78;72.46;102400.19;7361224;19;20018;-63
2023/05/27 06:35:07;;;;;;;20.98;2.17;;;;;;;14.72;72.62;102386.69;7360809;19;20043;-63
2023/05/27 06:37:35;;;;;;;10.80;1.60;;;;;;;14.74;71.97;102387.38;7362451;19;20018;-64
2023/05/27 06:40:02;;;;;;;19.60;1.90;;;;;;;14.76;72.13;102385.44;7363985;19;20014;-65
2023/05/27 06:42:29;;;;;;;13.60;1.85;;;;;;;14.67;72.36;102380.97;7362594;19;20276;-63
2023/05/27 06:44:56;;;;;;;16.58;1.95;;;;;;;14.54;72.16;102378.59;7364739;19;20018;-63
2023/05/27 06:47:24;;;;;;;11.13;1.40;;;;;;;14.54;72.50;102378.59;7359298;19;20014;-63
2023/05/27 06:49:51;;;;;;;12.75;1.25;;;;;;;14.48;72.89;102384.47;7361959;19;20475;-63
2023/05/27 06:52:18;;;;;;;18.80;2.40;;;;;;;14.45;72.63;102375.00;7364070;19;20041;-63
2023/05/27 06:54:47;;;;;;;10.43;1.30;;;;;;;14.43;72.67;102378.75;7362861;19;20022;-64
2023/05/27 06:57:14;;;;;;;15.32;2.30;;;;;;;14.47;72.80;102369.56;7362963;19;20030;-63
2023/05/27 06:59:41;;;;;;;15.93;1.70;;;;;;;14.45;72.69;102371.50;7363504;19;20006;-64
2023/05/27 07:02:09;;;;;;;15.38;1.63;;;;;;;14.49;73.21;102373.72;7358821;19;20014;-63
2023/05/27 07:04:36;;;;;;;18.35;2.10;;;;;;;14.49;72.88;102368.44;7363170;19;20017;-63
2023/05/27 07:07:04;;;;;;;18.55;2.15;;;;;;;14.53;72.13;102363.69;7361768;19;20022;-63
2023/05/27 07:09:31;;;;;;;11.50;1.92;;;;;;;14.51;72.29;102365.66;7361274;19;20010;-63
2023/05/27 07:12:00;;;;;;;14.07;1.98;;;;;;;14.62;71.69;102354.06;7362004;19;20378;-64
2023/05/27 07:14:27;;;;;;;11.50;1.77;;;;;;;14.69;71.72;102357.81;7362904;19;20018;-63
2023/05/27 07:16:55;;;;;;;14.45;1.90;;;;;;;14.73;70.87;102359.22;7358347;19;20015;-63
2023/05/27 07:19:22;;;;;;;13.45;1.98;;;;;;;14.82;71.10;102351.25;7362244;19;20015;-63
2023/05/27 07:21:50;;;;;;;13.70;1.92;;;;;;;14.90;70.48;102348.72;7362598;19;20010;-63
2023/05/27 07:24:17;;;;;;;15.38;2.20;;;;;;;15.02;69.27;102354.69;7362171;19;20015;-62
2023/05/27 07:26:44;;;;;;;14.20;1.90;;;;;;;15.03;69.49;102352.88;7361512;19;20102;-64
2023/05/27 07:29:11;;;;;;;16.42;2.15;;;;;;;15.12;69.91;102350.19;7363436;19;20025;-64
2023/05/27 07:31:39;;;;;;;12.27;1.50;;;;;;;15.38;68.22;102353.03;7359363;19;20014;-63
2023/05/27 07:34:06;;;;;;;12.35;1.80;;;;;;;15.56;68.60;102351.28;7362070;19;20019;-62
2023/05/27 07:36:34;;;;;;;13.23;1.80;;;;;;;15.64;67.96;102348.75;7360129;19;20019;-66
2023/05/27 07:39:01;;;;;;;16.95;2.60;;;;;;;15.73;66.92;102344.34;7361311;19;20037;-64
2023/05/27 07:41:29;;;;;;;13.85;1.88;;;;;;;16.05;65.97;102341.22;7360699;19;20710;-64
2023/05/27 07:43:56;;;;;;;13.20;3.03;;;;;;;16.49;63.92;102339.44;7359371;19;20017;-62
2023/05/27 07:46:23;;;;;;;19.67;2.33;;;;;;;16.54;63.93;102342.47;7357691;19;20010;-65
2023/05/27 07:48:50;;;;;;;11.98;2.25;;;;;;;16.50;63.16;102341.97;7361083;19;20456;-64
2023/05/27 07:51:18;;;;;;;8.82;1.85;;;;;;;16.51;63.48;102340.94;7367051;19;20435;-63
2023/05/27 07:53:45;;;;;;;11.10;2.13;;;;;;;16.53;63.47;102330.16;7361900;19;20018;-64
2023/05/27 07:56:12;;;;;;;12.63;1.98;;;;;;;16.45;63.76;102327.47;7354953;19;20039;-63
2023/05/27 07:58:39;;;;;;;16.30;2.45;;;;;;;16.35;64.05;102316.94;7361831;19;20515;-62
2023/05/27 08:01:06;;;;;;;11.65;2.00;;;;;;;16.31;64.30;102325.31;7357160;19;20071;-63
2023/05/27 08:03:33;;;;;;;13.77;1.80;;;;;;;16.21;64.42;102325.41;7360080;19;20011;-63
2023/05/27 08:06:00;;;;;;;17.20;2.80;;;;;;;15.95;65.35;102330.66;7361110;19;20011;-63
2023/05/27 08:08:27;;;;;;;16.77;2.20;;;;;;;15.98;66.45;102319.75;7359356;19;20048;-63
2023/05/27 08:10:55;;;;;;;12.30;2.55;;;;;;;16.02;66.00;102317.59;7359211;19;20102;-64
2023/05/27 08:13:22;;;;;;;15.40;2.50;;;;;;;16.11;65.84;102325.50;7357592;19;20082;-63
2023/05/27 08:15:49;;;;;;;15.52;2.42;;;;;;;16.46;64.44;102324.63;7358657;19;20019;-63
2023/05/27 08:18:16;;;;;;;13.32;2.33;;;;;;;16.82;63.91;102320.09;7361283;19;20479;-64
2023/05/27 08:20:44;;;;;;;15.57;2.15;;;;;;;17.24;61.41;102320.16;7360815;19;20086;-63
2023/05/27 08:23:11;;;;;;;11.18;2.10;;;;;;;17.66;60.49;102319.38;7360850;19;20010;-63
2023/05/27 08:25:38;;;;;;;18.55;2.47;;;;;;;18.20;57.76;102329.44;7360410;19;20736;-63
2023/05/27 08:28:06;;;;;;;16.10;2.25;;;;;;;18.27;56.92;102317.13;7362066;19;20404;-63
2023/05/27 08:30:33;;;;;;;15.00;2.50;;;;;;;18.07;58.32;102321.13;7357706;19;20962;-63
2023/05/27 08:33:00;;;;;;;10.32;2.17;;;;;;;17.97;58.76;102317.78;7348805;19;20086;-64
2023/05/27 08:35:27;;;;;;;8.50;2.35;;;;;;;17.72;58.82;102311.56;7345173;19;21069;-62
2023/05/27 08:37:54;;;;;;;16.63;2.75;;;;;;;17.51;60.52;102306.66;7353304;19;20022;-62
2023/05/27 08:40:22;;;;;;;11.20;2.47;;;;;;;17.36;60.88;102313.59;7350624;19;20254;-62
2023/05/27 08:42:52;;;;;;;16.50;2.30;;;;;;;17.50;59.16;102312.13;7348538;19;21206;-63
2023/05/27 08:45:19;;;;;;;18.38;3.42;;;;;;;17.51;60.47;102319.13;7350446;19;20896;-64
2023/05/27 08:47:48;;;;;;;17.20;3.05;;;;;;;17.41;59.51;102307.78;7350528;19;20014;-63
2023/05/27 08:50:16;;;;;;;14.48;2.70;;;;;;;17.40;58.97;102308.78;7362087;19;20018;-63
2023/05/27 08:52:52;;;;;;;15.85;2.63;;;;;;;17.45;59.03;102301.97;7361591;19;20703;-64
2023/05/27 08:55:21;;;;;;;13.68;2.67;;;;;;;17.40;59.11;102306.09;7359636;19;20026;-62
2023/05/27 08:57:54;;;;;;;20.02;3.17;;;;;;;17.30;59.97;102292.94;7360196;19;21231;-63
2023/05/27 09:00:21;;;;;;;;;;;;;;;17.06;59.82;102295.50;7361313;19;20006;-63
2023/05/27 09:02:49;;;;;;;9.73;2.35;;;;;;;16.99;60.34;102305.09;7360201;19;20367;-64
2023/05/27 09:05:17;;;;;;;15.40;3.03;;;;;;;16.90;61.35;102300.72;7362002;19;20022;-63
2023/05/27 09:07:45;;;;;;;19.20;2.83;;;;;;;16.99;60.95;102291.78;7360382;19;20887;-63
2023/05/27 09:10:12;;;;;;;17.73;2.60;;;;;;;17.16;60.85;102285.56;7355162;19;20014;-64
2023/05/27 09:12:43;;;;;;;13.05;2.92;;;;;;;17.15;59.71;102288.38;7362464;19;20057;-64
2023/05/27 09:15:11;;;;;;;10.75;2.85;;;;;;;16.83;60.30;102279.25;7360554;19;20021;-64
2023/05/27 09:17:41;;;;;;;14.73;2.75;;;;;;;16.84;61.02;102280.91;7360259;19;20040;-62
2023/05/27 09:20:10;;;;;;;14.90;3.42;;;;;;;16.74;61.02;102269.56;7361524;19;20050;-63
2023/05/27 09:22:39;;;;;;;21.88;2.80;;;;;;;16.85;61.77;102273.78;7359298;19;20043;-63
2023/05/27 09:25:07;;;;;;;13.63;2.63;;;;;;;16.93;61.88;102271.13;7363652;19;20022;-63
2023/05/27 09:27:34;;;;;;;12.75;2.78;;;;;;;16.98;60.65;102269.69;7360842;19;20010;-65
2023/05/27 09:30:10;;;;;;;15.88;3.10;;;;;;;17.04;60.95;102266.38;7362389;19;20098;-63
2023/05/27 09:32:37;;;;;;;13.60;2.20;;;;;;;16.97;60.84;102262.69;7354017;19;20027;-62
2023/05/27 09:35:07;;;;;;;15.77;2.83;;;;;;;16.91;61.09;102267.81;7363954;19;20698;-63
2023/05/27 09:37:35;;;;;;;17.75;3.30;;;;;;;16.86;61.32;102259.50;7344917;19;20088;-63
2023/05/27 09:40:08;;;;;;;20.85;3.03;;;;;;;16.89;61.98;102252.03;7355226;19;20011;-62
2023/05/27 09:42:43;;;;;;;13.68;2.75;;;;;;;16.88;60.82;102249.50;7359165;19;20054;-64
2023/05/27 09:45:13;;;;;;;13.25;3.20;;;;;;;16.86;60.76;102248.84;7363127;19;20474;-63
2023/05/27 09:47:46;;;;;;;18.45;2.88;;;;;;;16.81;60.89;102248.50;7356830;19;20010;-63
2023/05/27 09:50:14;;;;;;;12.85;2.53;;;;;;;16.66;61.60;102243.75;7363438;19;20046;-63
2023/05/27 09:52:43;;;;;;;17.83;2.58;;;;;;;16.74;61.48;102248.28;7362239;19;20010;-63
2023/05/27 09:55:30;;;;;;;10.65;2.05;;;;;;;16.79;60.98;102248.66;7361364;19;20017;-63
2023/05/27 09:57:58;;;;;;;10.45;2.22;;;;;;;16.90;61.10;102245.72;7361987;19;20021;-64
2023/05/27 10:00:27;;;;;;;12.60;2.47;;;;;;;17.08;60.02;102245.59;7358554;19;20014;-62
2023/05/27 10:02:57;;;;;;;8.05;1.80;;;;;;;17.20;58.88;102256.81;7360376;19;20018;-63
2023/05/27 10:05:27;;;;;;;16.88;2.25;;;;;;;17.31;58.17;102238.72;7364628;19;20086;-63
2023/05/27 10:07:54;;;;;;;10.98;2.00;;;;;;;17.42;59.19;102238.41;7349607;19;20029;-64
2023/05/27 10:10:25;;;;;;;11.38;2.70;;;;;;;17.56;59.01;102236.97;7358083;19;21014;-63
2023/05/27 10:12:54;;;;;;;14.93;2.10;;;;;;;17.77;58.32;102233.84;7360338;19;20781;-64
2023/05/27 10:15:26;;;;;;;11.35;2.28;;;;;;;17.89;58.43;102230.69;7358388;19;20022;-62
2023/05/27 10:17:55;;;;;;;14.35;2.65;;;;;;;18.04;57.45;102228.19;7357480;19;20023;-64
2023/05/27 10:20:27;;;;;;;10.65;1.98;;;;;;;18.12;57.20;102225.53;7360794;19;20011;-64
2023/05/27 10:22:54;;;;;;;12.43;1.95;;;;;;;18.10;55.75;102224.03;7355830;19;20400;-62
2023/05/27 10:25:22;;;;;;;11.23;2.25;;;;;;;17.89;56.29;102219.19;7356488;19;20038;-63
2023/05/27 10:27:49;;;;;;;15.60;2.30;;;;;;;17.76;57.86;102219.72;7358854;19;20109;-63
2023/05/27 10:30:16;;;;;;;10.43;2.08;;;;;;;17.81;58.13;102220.03;7359485;19;20109;-63
2023/05/27 10:32:49;;;;;;;14.93;1.85;;;;;;;17.93;58.39;102213.38;7356552;19;22085;-63
2023/05/27 10:35:17;;;;;;;;;;;;;;;18.03;57.69;102217.72;7362432;19;21001;-63
2023/05/27 10:37:46;;;;;;;7.65;1.73;;;;;;;18.07;56.62;102222.53;7357679;19;19922;-62
2023/05/27 10:40:24;;;;;;;11.05;1.98;;;;;;;18.13;56.89;102210.38;7356491;19;20356;-62
2023/05/27 10:43:02;;;;;;;11.55;2.33;;;;;;;18.17;56.48;102191.22;7358302;19;20021;-62
2023/05/27 10:45:33;;;;;;;12.20;2.20;;;;;;;18.19;56.61;102199.88;7355107;19;20022;-63
2023/05/27 10:48:01;;;;;;;13.30;2.25;;;;;;;18.23;56.92;102187.91;7355307;19;20026;-63
2023/05/27 10:50:33;;;;;;;13.95;2.40;;;;;;;18.31;56.24;102192.38;7359377;19;20192;-63
2023/05/27 10:53:01;;;;;;;11.63;2.17;;;;;;;18.42;55.12;102188.50;7357108;19;20018;-63
2023/05/27 10:55:30;;;;;;;12.70;1.88;;;;;;;18.47;55.06;102186.16;7353197;19;20137;-63
2023/05/27 10:57:58;;;;;;;12.43;2.00;;;;;;;18.49;54.05;102176.16;7357118;19;20018;-63
2023/05/27 11:00:27;;;;;;;8.15;1.88;;;;;;;18.42;54.38;102181.34;7357193;19;20021;-64
2023/05/27 11:02:55;;;;;;;9.07;1.45;;;;;;;18.41;54.89;102165.50;7354855;19;20018;-63
2023/05/27 11:05:31;;;;;;;11.75;2.05;;;;;;;18.45;54.79;102170.34;7355860;19;20031;-62
2023/05/27 11:08:00;;;;;;;10.18;1.90;;;;;;;18.52;54.95;102171.31;7358654;19;20026;-62
2023/05/27 11:10:27;;;;;;;9.52;1.70;;;;;;;18.57;55.53;102165.50;7353850;19;20060;-62
2023/05/27 11:12:55;;;;;;;8.13;1.75;;;;;;;18.63;55.83;102172.81;7358463;19;20011;-64
2023/05/27 11:15:22;;;;;;;9.38;1.63;;;;;;;18.70;54.80;102161.28;7353511;19;20056;-64
2023/05/27 11:17:49;;;;;;;10.75;2.38;;;;;;;18.77;54.06;102164.09;7354825;19;20006;-63
2023/05/27 11:20:17;;;;;;;9.27;1.92;;;;;;;18.85;53.18;102168.53;7359497;19;20017;-63